Friday, November 17, 2017, 2:37 PM EST
Back to Local

KESN, Easton / Newman Field

Location: Easton, MD, United States Lat: 38.8
Local Time: 2:37 PM EST (19:37 GMT) Lon: -76.067
Time Zone: US/Eastern Elev: 72 ft

Show me the last for .
Show Decoded

2017-11-17 13:59 METAR KESN 171859Z 30004KT 10SM FEW100 11/M02 A3018 =
2017-11-17 12:50 METAR KESN 171750Z 33011G16KT 10SM SCT250 10/M02 A3019 =
2017-11-17 11:50 METAR KESN 171650Z 32015G20KT 10SM SKC 10/M02 A3021 =
2017-11-17 10:50 METAR KESN 171550Z 33010G18KT 10SM SKC 09/M01 A3023 =
2017-11-17 09:50 METAR KESN 171450Z 34013G19KT 10SM SKC 09/M02 A3023 =
2017-11-17 08:50 METAR KESN 171350Z 34015G19KT 10SM SKC 08/M02 A3022 =
2017-11-17 07:50 METAR KESN 171250Z 33011G16KT 10SM SKC 07/M01 A3021 =
2017-11-17 06:50 METAR KESN 171150Z 33008G15KT 10SM FEW050 07/M01 A3020 =
2017-11-17 05:53 METAR KESN 171053Z 31008KT 10SM FEW150 07/M01 A3018 =
2017-11-17 04:35 METAR KESN 170935Z AUTO 31006KT 10SM SCT048 07/M01 A3016 RMK AO2 T00711007 =
2017-11-17 04:16 METAR KESN 170916Z AUTO 31008G14KT 10SM CLR 07/M01 A3015 RMK AO2 T00711008 =
2017-11-17 03:56 METAR KESN 170856Z AUTO 32010G15KT 10SM CLR 07/M01 A3014 RMK AO2 T00701007 =
2017-11-17 03:36 METAR KESN 170836Z AUTO 31010G15KT 10SM CLR 07/M01 A3013 RMK AO2 T00731008 =
2017-11-17 03:16 METAR KESN 170816Z AUTO 30008G14KT 10SM SCT048 07/M01 A3013 RMK AO2 T00721006 =
2017-11-17 02:56 METAR KESN 170756Z AUTO 30007KT 270V330 10SM SCT048 08/M01 A3014 RMK AO2
                 T00751007 =
2017-11-17 02:36 METAR KESN 170736Z AUTO 31009KT 10SM CLR 08/M01 A3013 RMK AO2 T00761009 =
2017-11-17 02:16 METAR KESN 170716Z AUTO 31010G15KT 10SM CLR 08/M01 A3013 RMK AO2 T00751007 =
2017-11-17 01:56 METAR KESN 170656Z AUTO 31011G15KT 10SM CLR 07/M01 A3012 RMK AO2 T00741007 =
2017-11-17 01:36 METAR KESN 170636Z AUTO 32011G17KT 10SM CLR 07/M01 A3012 RMK AO2 T00741006 =
2017-11-17 01:16 METAR KESN 170616Z AUTO 32010G16KT 10SM CLR 07/M01 A3011 RMK AO2 T00731007 =
2017-11-17 00:56 METAR KESN 170556Z AUTO 31009KT 10SM CLR 07/00 A3011 RMK AO2 T00721005 10112
                 20072 401690069 =
2017-11-17 00:36 METAR KESN 170536Z AUTO 32010G17KT 10SM CLR 08/M01 A3011 RMK AO2 T00761006 =
2017-11-17 00:16 METAR KESN 170516Z AUTO 32008KT 10SM CLR 07/00 A3011 RMK AO2 T00741004 =
2017-11-16 23:56 METAR KESN 170456Z AUTO 32012G16KT 10SM CLR 08/00 A3011 RMK AO2 T00771005 =
2017-11-16 23:36 METAR KESN 170436Z AUTO 32010G18KT 10SM CLR 08/M01 A3010 RMK AO2 T00781011 =
2017-11-16 23:16 METAR KESN 170416Z AUTO 33015G20KT 10SM CLR 08/M01 A3010 RMK AO2 T00781013 =
2017-11-16 22:56 METAR KESN 170356Z AUTO 32013G21KT 10SM CLR 08/M01 A3010 RMK AO2 T00791012 =
2017-11-16 22:36 METAR KESN 170336Z AUTO 34013G22KT 10SM CLR 08/M01 A3010 RMK AO2 T00811015 =
2017-11-16 22:16 METAR KESN 170316Z AUTO 34015G20KT 10SM CLR 08/M01 A3010 RMK AO2 T00801014 =
2017-11-16 21:56 METAR KESN 170256Z AUTO 34012G18KT 10SM CLR 08/M01 A3010 RMK AO2 T00801011 =
2017-11-16 20:50 METAR KESN 170150Z 33011G21KT 10SM SKC 08/M01 A3009 =
2017-11-16 19:50 METAR KESN 170050Z 34012G18KT 10SM SCT060 11/00 A3007 =
2017-11-16 18:52 METAR KESN 162352Z 34012G21KT 10SM SCT060 11/00 A3003 =
2017-11-16 17:50 METAR KESN 162250Z 33013G23KT 10SM SCT060 12/M01 A3000 =
2017-11-16 16:50 METAR KESN 162150Z 34009G17KT 10SM FEW080 13/02 A2996 =
2017-11-16 15:45 METAR KESN 162045Z 30009KT 10SM SCT080 16/04 A2992 =
2017-11-16 14:50 METAR KESN 161950Z 27009KT 10SM SCT080 17/04 A2991 =

Support USWX by starting your Amazon purchase here.